Time;durP1;ratioP1;P1;durP2;ratioP2;P2;SDS_P1;SDS_P2;PMS_P1;PMS_P2;Temp;Humidity;BMP_temperature;BMP_pressure;BME280_temperature;BME280_humidity;BME280_pressure;Samples;Min_cycle;Max_cycle;Signal;HPM_P1;HPM_P2
2022/10/06 00:01:08;;;;;;;;;;;20.90;70.30;;;;;;5018164;28;917;-69
2022/10/06 00:03:34;;;;;;;;;;;20.90;70.30;;;;;;5018251;28;903;-70
2022/10/06 00:06:00;;;;;;;;;;;20.90;70.30;;;;;;5024721;28;1289;-69
2022/10/06 00:08:25;;;;;;;;;;;20.90;70.30;;;;;;5019285;28;832;-69
2022/10/06 00:10:53;;;;;;;;;;;20.90;70.30;;;;;;5016431;28;1902;-69
2022/10/06 00:13:19;;;;;;;;;;;20.90;70.30;;;;;;5017999;28;935;-69
2022/10/06 00:15:44;;;;;;;;;;;20.90;70.30;;;;;;5017268;28;871;-69
2022/10/06 00:18:10;;;;;;;;;;;20.90;70.30;;;;;;5016646;28;1338;-70
2022/10/06 00:20:35;;;;;;;;;;;20.90;70.30;;;;;;5016235;28;775;-69
2022/10/06 00:23:01;;;;;;;;;;;20.90;70.30;;;;;;5020328;28;1186;-69
2022/10/06 00:25:27;;;;;;;;;;;20.90;70.30;;;;;;5015935;28;922;-69
2022/10/06 00:27:52;;;;;;;;;;;20.90;70.30;;;;;;5018739;28;1260;-69
2022/10/06 00:30:21;;;;;;;;;;;20.90;70.30;;;;;;5018163;28;871;-69
2022/10/06 00:32:57;;;;;;;;;;;20.90;70.40;;;;;;5021827;28;1960;-70
2022/10/06 00:35:22;;;;;;;;;;;20.90;70.30;;;;;;5019194;28;1042;-69
2022/10/06 00:37:48;;;;;;;;;;;20.80;70.30;;;;;;5024072;28;1256;-69
2022/10/06 00:40:13;;;;;;;;;;;20.90;70.30;;;;;;5024262;28;839;-69
2022/10/06 00:42:52;;;;;;;;;;;20.90;70.40;;;;;;5020421;28;956;-69
2022/10/06 00:45:20;;;;;;;;;;;20.90;70.40;;;;;;5018062;28;808;-70
2022/10/06 00:47:45;;;;;;;;;;;20.90;70.40;;;;;;5021506;28;1272;-70
2022/10/06 00:50:11;;;;;;;;;;;20.90;70.40;;;;;;5016739;28;884;-69
2022/10/06 00:52:36;;;;;;;;;;;20.80;70.40;;;;;;5018649;28;1959;-69
2022/10/06 00:55:03;;;;;;;;;;;20.80;70.30;;;;;;5017215;28;819;-70
2022/10/06 00:57:28;;;;;;;;;;;20.90;70.40;;;;;;5007654;28;1385;-70
2022/10/06 00:59:53;;;;;;;;;;;20.80;70.30;;;;;;5016810;28;1182;-70
2022/10/06 01:02:21;;;;;;;;;;;20.90;70.40;;;;;;5015621;28;905;-69
2022/10/06 01:04:47;;;;;;;;;;;20.80;70.40;;;;;;5015462;28;804;-70
2022/10/06 01:07:12;;;;;;;;;;;20.90;70.40;;;;;;5016774;28;1279;-69
2022/10/06 01:09:37;;;;;;;;;;;20.80;70.40;;;;;;5017652;28;1183;-69
2022/10/06 01:12:04;;;;;;;;;;;20.80;70.40;;;;;;5018506;28;1993;-69
2022/10/06 01:14:29;;;;;;;;;;;20.80;70.40;;;;;;5021888;28;868;-69
2022/10/06 01:16:56;;;;;;;;;;;20.90;70.40;;;;;;5022441;28;1347;-69
2022/10/06 01:19:46;;;;;;;;;;;20.90;70.40;;;;;;5026738;28;915;-69
2022/10/06 01:22:11;;;;;;;;;;;20.90;70.40;;;;;;5016676;28;1036;-69
2022/10/06 01:24:37;;;;;;;;;;;20.90;70.40;;;;;;5024493;28;1179;-69
2022/10/06 01:27:02;;;;;;;;;;;20.90;70.40;;;;;;5026565;28;1241;-69
2022/10/06 01:29:30;;;;;;;;;;;20.80;70.40;;;;;;5027076;28;1060;-69
2022/10/06 01:31:55;;;;;;;;;;;20.90;70.50;;;;;;5020791;28;1890;-70
2022/10/06 01:34:21;;;;;;;;;;;20.80;70.40;;;;;;5023176;28;1001;-70
2022/10/06 01:36:46;;;;;;;;;;;20.90;70.50;;;;;;5026496;28;1748;-69
2022/10/06 01:39:12;;;;;;;;;;;20.90;70.50;;;;;;5025068;28;843;-70
2022/10/06 01:41:37;;;;;;;;;;;20.90;70.50;;;;;;5027323;28;871;-70
2022/10/06 01:44:02;;;;;;;;;;;20.90;70.50;;;;;;5021868;28;1260;-69
2022/10/06 01:46:28;;;;;;;;;;;20.80;70.40;;;;;;5023603;28;1265;-69
2022/10/06 01:48:54;;;;;;;;;;;20.90;70.50;;;;;;5024888;28;826;-69
2022/10/06 01:51:19;;;;;;;;;;;20.90;70.50;;;;;;5024309;28;1898;-69
2022/10/06 01:53:45;;;;;;;;;;;20.80;70.50;;;;;;5028424;28;943;-69
2022/10/06 01:56:10;;;;;;;;;;;20.90;70.50;;;;;;5022762;28;1327;-69
2022/10/06 01:58:36;;;;;;;;;;;20.90;70.50;;;;;;5026074;28;864;-70
2022/10/06 02:01:05;;;;;;;;;;;20.80;70.50;;;;;;5025862;28;970;-70
2022/10/06 02:03:34;;;;;;;;;;;20.80;70.50;;;;;;5027826;28;853;-70
2022/10/06 02:06:00;;;;;;;;;;;20.80;70.50;;;;;;5022206;28;1271;-70
2022/10/06 02:08:25;;;;;;;;;;;20.90;70.60;;;;;;5026711;28;906;-70
2022/10/06 02:10:51;;;;;;;;;;;20.80;70.50;;;;;;5024047;28;1898;-71
2022/10/06 02:13:16;;;;;;;;;;;20.80;70.50;;;;;;5023677;28;935;-70
2022/10/06 02:15:42;;;;;;;;;;;20.80;70.50;;;;;;5027071;28;1096;-70
2022/10/06 02:18:07;;;;;;;;;;;20.80;70.50;;;;;;5025928;28;1273;-70
2022/10/06 02:20:33;;;;;;;;;;;20.80;70.50;;;;;;5024407;28;887;-69
2022/10/06 02:22:58;;;;;;;;;;;20.80;70.50;;;;;;5026996;28;863;-69
2022/10/06 02:25:23;;;;;;;;;;;20.80;70.50;;;;;;5027675;28;780;-70
2022/10/06 02:27:49;;;;;;;;;;;20.80;70.50;;;;;;5021974;28;1343;-70
2022/10/06 02:30:14;;;;;;;;;;;20.80;70.50;;;;;;5022811;28;1825;-70
2022/10/06 02:32:41;;;;;;;;;;;20.80;70.50;;;;;;5021308;28;1957;-70
2022/10/06 02:35:07;;;;;;;;;;;20.80;70.50;;;;;;5018443;28;906;-70
2022/10/06 02:37:32;;;;;;;;;;;20.80;70.50;;;;;;5019936;28;1201;-70
2022/10/06 02:39:58;;;;;;;;;;;20.80;70.60;;;;;;5021934;28;876;-70
2022/10/06 02:42:24;;;;;;;;;;;20.80;70.60;;;;;;5023146;28;839;-68
2022/10/06 02:44:51;;;;;;;;;;;20.80;70.50;;;;;;5022014;28;855;-71
2022/10/06 02:47:17;;;;;;;;;;;20.80;70.60;;;;;;5022719;28;1261;-69
2022/10/06 02:49:43;;;;;;;;;;;20.80;70.60;;;;;;5021640;28;890;-70
2022/10/06 02:52:09;;;;;;;;;;;20.80;70.60;;;;;;5020629;28;1910;-69
2022/10/06 02:54:35;;;;;;;;;;;20.80;70.60;;;;;;5020664;28;1033;-70
2022/10/06 02:57:01;;;;;;;;;;;20.80;70.60;;;;;;5019867;28;1393;-70
2022/10/06 02:59:26;;;;;;;;;;;20.80;70.60;;;;;;5019911;28;994;-70
2022/10/06 03:01:51;;;;;;;;;;;20.80;70.60;;;;;;5019510;28;1093;-71
2022/10/06 03:04:17;;;;;;;;;;;20.80;70.60;;;;;;5023505;28;904;-69
2022/10/06 03:06:42;;;;;;;;;;;20.80;70.60;;;;;;5026183;28;1303;-70
2022/10/06 03:09:08;;;;;;;;;;;20.80;70.70;;;;;;5022855;28;836;-70
2022/10/06 03:11:34;;;;;;;;;;;20.80;70.70;;;;;;5023446;28;1914;-70
2022/10/06 03:14:00;;;;;;;;;;;20.80;70.70;;;;;;5018435;28;894;-71
2022/10/06 03:16:26;;;;;;;;;;;20.80;70.70;;;;;;5022099;28;1447;-69
2022/10/06 03:18:52;;;;;;;;;;;20.80;70.70;;;;;;5023831;28;970;-70
2022/10/06 03:21:18;;;;;;;;;;;20.80;70.70;;;;;;5021516;28;911;-70
2022/10/06 03:23:43;;;;;;;;;;;20.80;70.70;;;;;;5021722;28;1035;-70
2022/10/06 03:26:09;;;;;;;;;;;20.80;70.70;;;;;;5021086;28;1241;-71
2022/10/06 03:28:34;;;;;;;;;;;20.80;70.70;;;;;;5021766;28;1411;-71
2022/10/06 03:31:01;;;;;;;;;;;20.80;70.70;;;;;;5020809;28;1894;-70
2022/10/06 03:33:27;;;;;;;;;;;20.80;70.70;;;;;;5022942;28;920;-71
2022/10/06 03:36:02;;;;;;;;;;;20.80;70.70;;;;;;5019968;28;1057;-70
2022/10/06 03:38:28;;;;;;;;;;;20.80;70.70;;;;;;5020189;28;900;-70
2022/10/06 03:41:00;;;;;;;;;;;20.80;70.70;;;;;;5020140;28;1078;-70
2022/10/06 03:43:26;;;;;;;;;;;20.80;70.70;;;;;;5023411;28;994;-70
2022/10/06 03:45:57;;;;;;;;;;;20.80;70.70;;;;;;5020874;28;770;-70
2022/10/06 03:48:22;;;;;;;;;;;20.80;70.70;;;;;;5021441;28;1189;-70
2022/10/06 03:50:55;;;;;;;;;;;20.80;70.70;;;;;;5018693;28;799;-70
2022/10/06 03:53:24;;;;;;;;;;;20.80;70.70;;;;;;5020544;28;811;-70
2022/10/06 03:55:59;;;;;;;;;;;20.80;70.70;;;;;;5021873;28;824;-70
2022/10/06 03:58:25;;;;;;;;;;;20.80;70.80;;;;;;5020946;28;923;-69
2022/10/06 04:01:00;;;;;;;;;;;20.80;70.80;;;;;;5017018;28;896;-70
2022/10/06 04:03:26;;;;;;;;;;;20.80;70.80;;;;;;5021289;28;994;-70
2022/10/06 04:05:52;;;;;;;;;;;20.80;70.80;;;;;;5015771;28;1146;-70
2022/10/06 04:08:17;;;;;;;;;;;20.80;70.80;;;;;;5018624;28;1312;-69
2022/10/06 04:10:43;;;;;;;;;;;20.80;70.80;;;;;;5017126;28;1148;-71
2022/10/06 04:13:08;;;;;;;;;;;20.80;70.80;;;;;;5015503;28;1979;-70
2022/10/06 04:15:34;;;;;;;;;;;20.80;70.80;;;;;;5018772;28;832;-71
2022/10/06 04:17:59;;;;;;;;;;;20.70;70.70;;;;;;5017675;28;1253;-70
2022/10/06 04:20:25;;;;;;;;;;;20.80;70.80;;;;;;5020915;28;942;-70
2022/10/06 04:22:50;;;;;;;;;;;20.80;70.80;;;;;;5015444;28;824;-70
2022/10/06 04:25:16;;;;;;;;;;;20.80;70.80;;;;;;5018714;28;899;-70
2022/10/06 04:27:41;;;;;;;;;;;20.80;70.80;;;;;;5023205;28;1275;-70
2022/10/06 04:30:07;;;;;;;;;;;20.80;70.80;;;;;;5020592;28;786;-70
2022/10/06 04:32:32;;;;;;;;;;;20.70;70.70;;;;;;5021192;28;1902;-70
2022/10/06 04:34:58;;;;;;;;;;;20.70;70.80;;;;;;5016342;28;883;-70
2022/10/06 04:37:23;;;;;;;;;;;20.80;70.80;;;;;;5020939;28;1243;-70
2022/10/06 04:39:49;;;;;;;;;;;20.80;70.80;;;;;;5016734;28;876;-70
2022/10/06 04:42:14;;;;;;;;;;;20.80;70.70;;;;;;5021393;28;1038;-70
2022/10/06 04:44:40;;;;;;;;;;;20.80;70.60;;;;;;5018570;28;994;-70
2022/10/06 04:47:05;;;;;;;;;;;20.90;70.60;;;;;;5019230;28;1256;-70
2022/10/06 04:49:30;;;;;;;;;;;20.90;70.50;;;;;;5020521;28;1102;-70
2022/10/06 04:51:56;;;;;;;;;;;21.00;70.30;;;;;;5023322;28;1891;-70
2022/10/06 04:54:21;;;;;;;;;;;21.10;70.10;;;;;;5018087;28;892;-70
2022/10/06 04:56:47;;;;;;;;;;;21.20;69.90;;;;;;5022763;28;1348;-70
2022/10/06 04:59:12;;;;;;;;;;;21.30;69.60;;;;;;5021782;28;876;-70
2022/10/06 05:01:38;;;;;;;;;;;21.40;69.40;;;;;;5018727;28;959;-70
2022/10/06 05:04:03;;;;;;;;;;;21.40;69.10;;;;;;5015785;28;940;-71
2022/10/06 05:06:32;;;;;;;;;;;21.50;68.90;;;;;;5015919;28;1197;-70
2022/10/06 05:09:02;;;;;;;;;;;21.60;68.70;;;;;;5017409;28;903;-70
2022/10/06 05:11:28;;;;;;;;;;;21.70;68.40;;;;;;5019677;28;2007;-69
2022/10/06 05:13:54;;;;;;;;;;;21.70;68.20;;;;;;5015559;28;1644;-70
2022/10/06 05:16:19;;;;;;;;;;;21.80;68.10;;;;;;5015962;28;1820;-71
2022/10/06 05:18:45;;;;;;;;;;;21.80;67.80;;;;;;5022432;28;1966;-71
2022/10/06 05:21:14;;;;;;;;;;;21.90;67.70;;;;;;5016418;28;976;-70
2022/10/06 05:23:40;;;;;;;;;;;21.90;67.50;;;;;;5025567;28;1189;-71
2022/10/06 05:26:06;;;;;;;;;;;22.00;67.40;;;;;;5020386;28;1724;-71
2022/10/06 05:28:31;;;;;;;;;;;22.00;67.20;;;;;;5023508;28;1284;-70
2022/10/06 05:30:57;;;;;;;;;;;22.10;67.10;;;;;;5017596;28;1953;-68
2022/10/06 05:33:23;;;;;;;;;;;22.10;66.90;;;;;;5003592;28;4889;-69
2022/10/06 05:35:52;;;;;;;;;;;22.20;66.80;;;;;;5013304;28;4645;-68
2022/10/06 05:38:17;;;;;;;;;;;22.20;66.60;;;;;;5016673;28;1314;-68
2022/10/06 05:40:43;;;;;;;;;;;22.30;66.60;;;;;;5018135;28;879;-67
2022/10/06 05:43:08;;;;;;;;;;;22.30;66.40;;;;;;5015802;28;1062;-68
2022/10/06 05:45:33;;;;;;;;;;;22.30;66.30;;;;;;5018106;28;1323;-68
2022/10/06 05:47:59;;;;;;;;;;;22.30;66.20;;;;;;5016121;28;1265;-69
2022/10/06 05:50:24;;;;;;;;;;;22.40;66.20;;;;;;5017176;28;962;-69
2022/10/06 05:52:52;;;;;;;;;;;22.40;66.00;;;;;;5020357;28;1989;-68
2022/10/06 05:55:18;;;;;;;;;;;22.50;65.90;;;;;;5019093;28;888;-69
2022/10/06 05:57:43;;;;;;;;;;;22.50;65.80;;;;;;5018210;28;1291;-69
2022/10/06 06:00:09;;;;;;;;;;;22.60;65.70;;;;;;5015386;28;935;-68
2022/10/06 06:02:35;;;;;;;;;;;22.60;65.60;;;;;;5016989;28;888;-68
2022/10/06 06:05:00;;;;;;;;;;;22.60;65.50;;;;;;5021256;28;943;-69
2022/10/06 06:07:27;;;;;;;;;;;22.70;65.40;;;;;;5021525;28;1296;-69
2022/10/06 06:09:52;;;;;;;;;;;22.70;65.30;;;;;;5021225;28;1056;-69
2022/10/06 06:12:17;;;;;;;;;;;22.70;65.20;;;;;;5025191;28;1906;-69
2022/10/06 06:17:30;;;;;;;;;;;22.70;65.00;;;;;;5021673;28;1161;-69
2022/10/06 06:19:56;;;;;;;;;;;22.80;65.10;;;;;;5025475;28;1131;-70
2022/10/06 06:22:21;;;;;;;;;;;22.70;65.00;;;;;;5020414;28;1344;-70
2022/10/06 06:24:47;;;;;;;;;;;22.70;65.00;;;;;;5022523;28;1010;-69
2022/10/06 06:27:12;;;;;;;;;;;22.70;65.00;;;;;;5019978;28;2095;-69
2022/10/06 06:29:38;;;;;;;;;;;22.70;65.10;;;;;;5023238;28;1936;-69
2022/10/06 06:32:04;;;;;;;;;;;22.70;65.20;;;;;;5021817;28;1969;-69
2022/10/06 06:34:30;;;;;;;;;;;22.70;65.20;;;;;;5022416;28;1375;-69
2022/10/06 06:36:57;;;;;;;;;;;22.70;65.20;;;;;;5019586;28;1365;-68
2022/10/06 06:39:23;;;;;;;;;;;22.70;65.20;;;;;;5022340;28;1632;-69
2022/10/06 06:41:49;;;;;;;;;;;22.70;65.20;;;;;;5020929;28;1048;-69
2022/10/06 06:44:15;;;;;;;;;;;22.70;66.00;;;;;;5021054;28;825;-70
2022/10/06 06:46:42;;;;;;;;;;;22.80;65.20;;;;;;5021455;28;1276;-70
2022/10/06 06:49:07;;;;;;;;;;;22.80;65.20;;;;;;5021903;28;899;-70
2022/10/06 06:51:33;;;;;;;;;;;22.80;65.20;;;;;;5021529;28;1974;-70
2022/10/06 06:54:01;;;;;;;;;;;22.80;65.10;;;;;;5020613;28;904;-70
2022/10/06 06:56:26;;;;;;;;;;;22.80;65.10;;;;;;5017917;28;1359;-69
2022/10/06 06:58:52;;;;;;;;;;;22.80;65.00;;;;;;5020937;28;888;-69
2022/10/06 07:01:18;;;;;;;;;;;22.80;64.90;;;;;;5024166;28;891;-69
2022/10/06 07:03:50;;;;;;;;;;;22.90;65.00;;;;;;5026169;28;834;-69
2022/10/06 07:06:16;;;;;;;;;;;22.90;64.90;;;;;;5019254;28;2164;-69
2022/10/06 07:08:42;;;;;;;;;;;22.90;64.90;;;;;;5025112;28;1906;-68
2022/10/06 07:11:11;;;;;;;;;;;22.90;65.10;;;;;;5025614;28;1973;-68
2022/10/06 07:13:36;;;;;;;;;;;22.90;65.40;;;;;;5024268;28;1289;-68
2022/10/06 07:26:59;;;;;;;;;;;22.90;67.00;;;;;;5024788;28;1343;-68
2022/10/06 07:29:24;;;;;;;;;;;22.80;67.10;;;;;;5022801;28;1351;-68
2022/10/06 07:31:49;;;;;;;;;;;22.90;67.20;;;;;;5021238;28;1898;-69
2022/10/06 07:34:15;;;;;;;;;;;22.80;66.90;;;;;;5021704;28;1125;-68
2022/10/06 07:36:45;;;;;;;;;;;22.80;66.70;;;;;;5018092;28;1225;-68
2022/10/06 07:39:10;;;;;;;;;;;22.90;66.80;;;;;;5022752;28;914;-68
2022/10/06 07:41:36;;;;;;;;;;;22.90;66.70;;;;;;5018762;28;891;-68
2022/10/06 07:44:04;;;;;;;;;;;23.00;66.70;;;;;;5020328;28;939;-68
2022/10/06 07:46:29;;;;;;;;;;;23.00;66.80;;;;;;5019600;28;1340;-68
2022/10/06 07:48:55;;;;;;;;;;;23.00;66.80;;;;;;5016030;28;887;-68
2022/10/06 07:51:20;;;;;;;;;;;23.00;66.70;;;;;;5021700;28;1959;-68
2022/10/06 07:53:49;;;;;;;;;;;23.00;66.80;;;;;;5019349;28;895;-68
2022/10/06 07:56:15;;;;;;;;;;;23.00;66.80;;;;;;5018473;28;1201;-68
2022/10/06 07:58:42;;;;;;;;;;;23.00;66.90;;;;;;5019584;28;930;-68
2022/10/06 08:01:08;;;;;;;;;;;23.10;67.00;;;;;;5018544;28;887;-68
2022/10/06 08:03:37;;;;;;;;;;;23.10;67.60;;;;;;5019207;28;792;-68
2022/10/06 08:06:02;;;;;;;;;;;23.10;67.40;;;;;;5026826;28;1288;-68
2022/10/06 08:08:31;;;;;;;;;;;23.10;67.40;;;;;;5018372;28;912;-69
2022/10/06 08:10:57;;;;;;;;;;;23.10;67.50;;;;;;5014498;28;2374;-69
2022/10/06 08:13:23;;;;;;;;;;;23.10;67.60;;;;;;5004071;28;1902;-69
2022/10/06 08:15:50;;;;;;;;;;;23.10;67.60;;;;;;5027917;28;900;-70
2022/10/06 08:18:19;;;;;;;;;;;23.10;67.60;;;;;;5020308;28;1193;-70
2022/10/06 08:20:44;;;;;;;;;;;23.10;67.70;;;;;;5022467;28;856;-68
2022/10/06 08:23:10;;;;;;;;;;;23.10;67.80;;;;;;5022205;28;830;-67
2022/10/06 08:25:42;;;;;;;;;;;23.10;67.90;;;;;;5031440;28;611;-69
2022/10/06 08:28:08;;;;;;;;;;;23.10;68.80;;;;;;5020682;28;2116;-70
2022/10/06 08:30:33;;;;;;;;;;;23.00;69.20;;;;;;5023902;28;1559;-68
2022/10/06 08:32:59;;;;;;;;;;;23.00;69.40;;;;;;5018395;28;1956;-68
2022/10/06 08:35:24;;;;;;;;;;;23.00;69.40;;;;;;5020034;28;931;-68
2022/10/06 08:37:51;;;;;;;;;;;23.10;69.50;;;;;;5019916;28;1903;-68
2022/10/06 08:40:17;;;;;;;;;;;23.00;69.40;;;;;;5021267;28;1335;-67
2022/10/06 08:42:47;;;;;;;;;;;23.00;69.40;;;;;;5026023;28;1542;-68
2022/10/06 08:45:13;;;;;;;;;;;23.10;69.40;;;;;;5021779;28;891;-69
2022/10/06 08:47:39;;;;;;;;;;;23.10;69.40;;;;;;5021227;28;1270;-68
2022/10/06 08:50:05;;;;;;;;;;;23.00;69.30;;;;;;5021660;28;834;-68
2022/10/06 08:52:33;;;;;;;;;;;23.00;69.30;;;;;;5018102;28;1961;-68
2022/10/06 08:55:04;;;;;;;;;;;23.00;69.20;;;;;;5014864;28;1027;-69
2022/10/06 08:57:30;;;;;;;;;;;23.00;69.20;;;;;;5031082;28;1346;-68
2022/10/06 08:59:55;;;;;;;;;;;23.00;69.50;;;;;;5033819;28;892;-68
2022/10/06 09:02:24;;;;;;;;;;;23.00;69.50;;;;;;5015538;28;1354;-69
2022/10/06 09:04:50;;;;;;;;;;;22.90;69.40;;;;;;5033081;28;820;-68
2022/10/06 09:07:17;;;;;;;;;;;22.90;70.30;;;;;;5033020;28;1272;-69
2022/10/06 09:09:57;;;;;;;;;;;22.90;69.60;;;;;;5031967;28;998;-68
2022/10/06 09:12:43;;;;;;;;;;;22.80;69.70;;;;;;5033032;28;1902;-68
2022/10/06 09:15:21;;;;;;;;;;;22.80;70.90;;;;;;5032414;28;1015;-68
2022/10/06 09:17:49;;;;;;;;;;;22.80;70.40;;;;;;5032775;28;1173;-68
2022/10/06 09:20:19;;;;;;;;;;;22.70;71.00;;;;;;5033033;28;769;-68
2022/10/06 09:22:45;;;;;;;;;;;22.70;71.50;;;;;;5015479;28;1066;-68
2022/10/06 09:25:18;;;;;;;;;;;22.70;71.70;;;;;;5032955;28;921;-68
2022/10/06 09:27:49;;;;;;;;;;;22.70;72.10;;;;;;5031706;28;1257;-68
2022/10/06 09:30:15;;;;;;;;;;;22.70;72.30;;;;;;5024717;28;847;-68
2022/10/06 09:32:43;;;;;;;;;;;22.70;72.70;;;;;;5013179;28;1907;-69
2022/10/06 09:35:29;;;;;;;;;;;22.70;72.50;;;;;;5012091;28;793;-68
2022/10/06 09:38:02;;;;;;;;;;;22.60;72.30;;;;;;5016200;28;1201;-69
2022/10/06 09:40:47;;;;;;;;;;;22.60;72.40;;;;;;5026880;28;787;-68
2022/10/06 09:43:15;;;;;;;;;;;22.60;72.30;;;;;;5030928;28;820;-68
2022/10/06 09:45:41;;;;;;;;;;;22.60;72.50;;;;;;5024026;28;843;-68
2022/10/06 09:48:13;;;;;;;;;;;22.60;72.60;;;;;;5028323;28;1209;-68
2022/10/06 09:50:39;;;;;;;;;;;22.60;72.70;;;;;;5020983;28;879;-68
2022/10/06 09:53:08;;;;;;;;;;;22.50;72.80;;;;;;5019859;28;1899;-68
2022/10/06 09:55:37;;;;;;;;;;;22.50;72.90;;;;;;5016325;28;1348;-69
2022/10/06 09:58:03;;;;;;;;;;;22.50;73.00;;;;;;5024807;28;1378;-69
2022/10/06 10:00:33;;;;;;;;;;;22.50;73.30;;;;;;5023276;28;903;-69
2022/10/06 10:03:02;;;;;;;;;;;22.50;73.40;;;;;;5019387;28;833;-69
2022/10/06 10:05:28;;;;;;;;;;;22.50;73.50;;;;;;5018865;28;1067;-69
2022/10/06 10:08:00;;;;;;;;;;;22.50;73.40;;;;;;5018848;28;1272;-69
2022/10/06 10:10:26;;;;;;;;;;;22.50;73.40;;;;;;5020257;28;876;-69
2022/10/06 10:12:52;;;;;;;;;;;22.50;73.20;;;;;;5019805;28;1894;-69
2022/10/06 10:15:18;;;;;;;;;;;22.50;73.00;;;;;;5022444;28;844;-69
2022/10/06 10:17:54;;;;;;;;;;;22.50;73.10;;;;;;5020146;28;1217;-69
2022/10/06 10:20:35;;;;;;;;;;;22.50;73.00;;;;;;5019166;28;899;-69
2022/10/06 10:23:06;;;;;;;;;;;22.40;72.90;;;;;;5012426;28;2219;-69
2022/10/06 10:25:52;;;;;;;;;;;22.40;73.00;;;;;;5019391;28;848;-69
2022/10/06 10:28:40;;;;;;;;;;;22.40;72.90;;;;;;5006834;28;1448;-69
2022/10/06 10:31:21;;;;;;;;;;;22.40;72.90;;;;;;5020920;28;1229;-69
2022/10/06 10:33:50;;;;;;;;;;;22.40;72.90;;;;;;5021626;28;1969;-68
2022/10/06 10:36:15;;;;;;;;;;;22.40;72.90;;;;;;5025572;28;1448;-68
2022/10/06 10:38:41;;;;;;;;;;;22.40;73.20;;;;;;5023262;28;1641;-68
2022/10/06 10:41:12;;;;;;;;;;;22.40;73.20;;;;;;5026445;28;870;-67
2022/10/06 10:43:40;;;;;;;;;;;22.50;73.10;;;;;;5024073;28;825;-68
2022/10/06 10:46:08;;;;;;;;;;;22.50;72.80;;;;;;5025307;28;1376;-68
2022/10/06 10:48:48;;;;;;;;;;;22.50;72.70;;;;;;5019269;28;1323;-68
2022/10/06 10:51:20;;;;;;;;;;;22.40;72.50;;;;;;5018902;28;1970;-68
2022/10/06 10:53:47;;;;;;;;;;;22.40;72.60;;;;;;5019851;28;903;-67
2022/10/06 10:56:12;;;;;;;;;;;22.40;72.70;;;;;;5022746;28;1349;-68
2022/10/06 10:58:38;;;;;;;;;;;22.40;72.80;;;;;;5025258;28;808;-69
2022/10/06 11:01:19;;;;;;;;;;;22.40;72.90;;;;;;5017577;28;1084;-69
2022/10/06 11:03:55;;;;;;;;;;;22.40;73.00;;;;;;5018770;28;1015;-69
2022/10/06 11:06:20;;;;;;;;;;;22.40;73.60;;;;;;5019742;28;1229;-69
2022/10/06 11:08:48;;;;;;;;;;;22.40;74.00;;;;;;5016190;28;883;-69
2022/10/06 11:11:36;;;;;;;;;;;22.40;74.10;;;;;;5026903;28;1906;-69
2022/10/06 11:14:02;;;;;;;;;;;22.40;74.10;;;;;;5020061;28;813;-70
2022/10/06 11:16:43;;;;;;;;;;;22.40;74.00;;;;;;5021492;28;1940;-69
2022/10/06 11:19:28;;;;;;;;;;;22.40;73.80;;;;;;5017380;28;1280;-69
2022/10/06 11:22:20;;;;;;;;;;;22.30;73.60;;;;;;5026507;28;1071;-68
2022/10/06 11:24:51;;;;;;;;;;;22.30;73.60;;;;;;5002999;28;1096;-69
2022/10/06 11:27:35;;;;;;;;;;;22.30;73.90;;;;;;5030818;28;1225;-69
2022/10/06 11:30:03;;;;;;;;;;;22.30;73.90;;;;;;5033648;28;943;-70
2022/10/06 11:32:29;;;;;;;;;;;22.30;74.20;;;;;;5028061;28;1961;-69
2022/10/06 11:34:54;;;;;;;;;;;22.30;74.20;;;;;;5025196;28;867;-69
2022/10/06 11:37:23;;;;;;;;;;;22.30;74.40;;;;;;5027803;28;1177;-70
2022/10/06 11:40:02;;;;;;;;;;;22.30;74.50;;;;;;5016682;28;840;-69
2022/10/06 11:42:33;;;;;;;;;;;22.30;74.60;;;;;;5025497;28;840;-68
2022/10/06 11:45:03;;;;;;;;;;;22.30;74.70;;;;;;5029101;28;1135;-68
2022/10/06 11:47:30;;;;;;;;;;;22.30;74.70;;;;;;5023082;28;1316;-69
2022/10/06 11:49:56;;;;;;;;;;;22.30;74.80;;;;;;5020310;28;820;-68
2022/10/06 11:52:21;;;;;;;;;;;22.30;74.90;;;;;;5017260;28;1898;-67
2022/10/06 11:54:48;;;;;;;;;;;22.30;75.10;;;;;;5015590;28;861;-69
2022/10/06 11:57:25;;;;;;;;;;;22.30;75.10;;;;;;5016672;28;1217;-69
2022/10/06 11:59:51;;;;;;;;;;;22.30;75.10;;;;;;5018980;28;2524;-68
2022/10/06 12:02:28;;;;;;;;;;;22.30;75.00;;;;;;5021150;28;1890;-68
2022/10/06 12:05:09;;;;;;;;;;;22.30;75.20;;;;;;5020855;28;1307;-67
2022/10/06 12:07:52;;;;;;;;;;;22.20;73.70;;;;;;5018955;28;1449;-67
2022/10/06 12:10:27;;;;;;;;;;;22.20;71.40;;;;;;5018535;28;1213;-67
2022/10/06 12:13:02;;;;;;;;;;;22.20;69.80;;;;;;5016949;28;1970;-67
2022/10/06 12:15:33;;;;;;;;;;;22.10;69.20;;;;;;5021007;28;1429;-67
2022/10/06 12:18:01;;;;;;;;;;;22.10;68.80;;;;;;5015806;28;1245;-67
2022/10/06 12:20:37;;;;;;;;;;;22.10;67.80;;;;;;5022538;28;1464;-67
2022/10/06 12:23:15;;;;;;;;;;;22.00;67.50;;;;;;5017710;28;1030;-67
2022/10/06 12:25:57;;;;;;;;;;;22.00;67.20;;;;;;5018459;28;975;-67
2022/10/06 12:28:36;;;;;;;;;;;22.00;67.00;;;;;;5022047;28;1526;-67
2022/10/06 12:31:05;;;;;;;;;;;22.00;67.40;;;;;;5018464;28;1034;-66
2022/10/06 12:33:37;;;;;;;;;;;21.90;67.50;;;;;;5022205;28;1905;-68
2022/10/06 12:36:03;;;;;;;;;;;21.90;67.40;;;;;;5018748;28;1306;-67
2022/10/06 12:38:34;;;;;;;;;;;21.90;66.70;;;;;;5019508;28;2136;-68
2022/10/06 12:41:00;;;;;;;;;;;21.90;65.90;;;;;;5020724;28;1914;-68
2022/10/06 12:43:27;;;;;;;;;;;21.80;66.00;;;;;;5021107;28;911;-68
2022/10/06 12:46:03;;;;;;;;;;;21.80;65.70;;;;;;5014962;28;1941;-68
2022/10/06 12:48:32;;;;;;;;;;;21.80;66.20;;;;;;5020069;28;1888;-68
2022/10/06 12:51:01;;;;;;;;;;;21.80;66.00;;;;;;5022092;28;1641;-68
2022/10/06 12:53:31;;;;;;;;;;;21.80;64.90;;;;;;5021471;28;1890;-68
2022/10/06 12:56:01;;;;;;;;;;;21.80;64.90;;;;;;5021319;28;2145;-67
2022/10/06 12:58:28;;;;;;;;;;;21.70;65.20;;;;;;5018439;28;1405;-67
2022/10/06 13:00:57;;;;;;;;;;;21.70;65.30;;;;;;5017981;28;1472;-68
2022/10/06 13:03:23;;;;;;;;;;;21.70;65.10;;;;;;5022958;28;1286;-68
2022/10/06 13:05:49;;;;;;;;;;;21.70;65.50;;;;;;5017759;28;876;-68
2022/10/06 13:08:19;;;;;;;;;;;21.70;65.30;;;;;;5020435;28;1444;-68
2022/10/06 13:10:44;;;;;;;;;;;21.70;65.70;;;;;;5021623;28;2284;-67
2022/10/06 13:13:18;;;;;;;;;;;21.60;65.30;;;;;;5016382;28;1906;-68
2022/10/06 13:15:43;;;;;;;;;;;21.60;65.40;;;;;;5007482;28;1491;-68
2022/10/06 13:18:10;;;;;;;;;;;21.60;65.20;;;;;;5021210;28;1254;-68
2022/10/06 13:20:39;;;;;;;;;;;21.60;65.60;;;;;;5022185;28;902;-68
2022/10/06 13:23:11;;;;;;;;;;;21.60;65.20;;;;;;5018115;28;1434;-67
2022/10/06 13:25:41;;;;;;;;;;;21.60;65.40;;;;;;5019067;28;1389;-68
2022/10/06 13:28:23;;;;;;;;;;;21.60;65.40;;;;;;5022287;28;2049;-68
2022/10/06 13:30:52;;;;;;;;;;;21.60;65.30;;;;;;5022928;28;1616;-68
2022/10/06 13:33:18;;;;;;;;;;;21.50;65.30;;;;;;5020074;28;2035;-68
2022/10/06 13:35:43;;;;;;;;;;;21.50;65.60;;;;;;5017183;28;1319;-68
2022/10/06 13:38:08;;;;;;;;;;;21.50;65.70;;;;;;5015929;28;1359;-68
2022/10/06 13:40:34;;;;;;;;;;;21.50;65.80;;;;;;5021515;28;1018;-68
2022/10/06 13:42:59;;;;;;;;;;;21.50;65.60;;;;;;5022262;28;880;-68
2022/10/06 13:45:25;;;;;;;;;;;21.50;65.40;;;;;;5017617;28;1030;-68
2022/10/06 13:48:10;;;;;;;;;;;21.50;65.00;;;;;;5018412;28;1286;-68
2022/10/06 13:50:35;;;;;;;;;;;21.50;64.50;;;;;;5017560;28;880;-68
2022/10/06 13:53:01;;;;;;;;;;;21.50;64.20;;;;;;5017836;28;1907;-67
2022/10/06 13:55:26;;;;;;;;;;;21.50;63.50;;;;;;5018639;28;1420;-68
2022/10/06 13:57:55;;;;;;;;;;;21.40;63.10;;;;;;5019154;28;1415;-68
2022/10/06 14:00:24;;;;;;;;;;;21.40;62.80;;;;;;5019247;28;1088;-68
2022/10/06 14:03:06;;;;;;;;;;;21.40;62.10;;;;;;5015814;28;2028;-68
2022/10/06 14:05:35;;;;;;;;;;;21.40;61.90;;;;;;5017229;28;1366;-68
2022/10/06 14:08:01;;;;;;;;;;;21.40;61.50;;;;;;5017952;28;1257;-68
2022/10/06 14:10:29;;;;;;;;;;;21.40;61.50;;;;;;5015572;28;879;-68
2022/10/06 14:12:56;;;;;;;;;;;21.40;61.10;;;;;;5018584;28;1914;-68
2022/10/06 14:15:22;;;;;;;;;;;21.40;61.00;;;;;;5018405;28;930;-68
2022/10/06 14:17:57;;;;;;;;;;;21.40;60.60;;;;;;5016664;28;1213;-68
2022/10/06 14:20:34;;;;;;;;;;;21.40;60.50;;;;;;5023334;28;1826;-68
2022/10/06 14:23:00;;;;;;;;;;;21.30;60.30;;;;;;5017307;28;1385;-68
2022/10/06 14:25:25;;;;;;;;;;;21.30;60.10;;;;;;5017038;28;1007;-68
2022/10/06 14:27:51;;;;;;;;;;;21.30;60.10;;;;;;5021596;28;1362;-68
2022/10/06 14:30:16;;;;;;;;;;;21.30;60.40;;;;;;5017968;28;805;-68
2022/10/06 14:32:42;;;;;;;;;;;21.30;60.50;;;;;;5020979;28;1953;-68
2022/10/06 14:35:09;;;;;;;;;;;21.30;60.50;;;;;;5021143;28;1073;-68
2022/10/06 14:37:35;;;;;;;;;;;21.30;60.40;;;;;;5022078;28;1316;-68
2022/10/06 14:40:00;;;;;;;;;;;21.30;60.40;;;;;;5018799;28;845;-68
2022/10/06 14:42:26;;;;;;;;;;;21.30;60.80;;;;;;5021205;28;917;-68
2022/10/06 14:44:51;;;;;;;;;;;21.30;60.60;;;;;;5019145;28;907;-68
2022/10/06 14:47:16;;;;;;;;;;;21.30;61.00;;;;;;5017992;28;1691;-68
2022/10/06 14:49:43;;;;;;;;;;;21.20;60.70;;;;;;5016411;28;935;-68
2022/10/06 14:52:10;;;;;;;;;;;21.20;61.10;;;;;;5019008;28;1950;-68
2022/10/06 14:54:35;;;;;;;;;;;21.20;60.50;;;;;;5023300;28;814;-68